sensor_id;sensor_type;location;lat;lon;timestamp;temperature;humidity
22212;DHT22;11275;52.488;13.462;2023-02-18T00:00:38;9.10;99.90
22212;DHT22;11275;52.488;13.462;2023-02-18T00:03:04;9.00;99.90
22212;DHT22;11275;52.488;13.462;2023-02-18T00:05:29;9.00;99.90
22212;DHT22;11275;52.488;13.462;2023-02-18T00:07:55;8.90;99.90
22212;DHT22;11275;52.488;13.462;2023-02-18T00:10:20;8.90;99.90
22212;DHT22;11275;52.488;13.462;2023-02-18T00:12:46;9.00;99.90
22212;DHT22;11275;52.488;13.462;2023-02-18T00:15:11;8.90;99.90
22212;DHT22;11275;52.488;13.462;2023-02-18T00:17:37;8.90;99.90
22212;DHT22;11275;52.488;13.462;2023-02-18T00:20:03;8.90;99.90
22212;DHT22;11275;52.488;13.462;2023-02-18T00:22:29;8.90;99.90
22212;DHT22;11275;52.488;13.462;2023-02-18T00:24:55;8.90;99.90
22212;DHT22;11275;52.488;13.462;2023-02-18T00:27:20;8.90;99.90
22212;DHT22;11275;52.488;13.462;2023-02-18T00:29:46;8.90;99.90
22212;DHT22;11275;52.488;13.462;2023-02-18T00:32:11;8.90;99.90
22212;DHT22;11275;52.488;13.462;2023-02-18T00:34:37;8.90;99.90
22212;DHT22;11275;52.488;13.462;2023-02-18T00:37:03;8.90;99.90
22212;DHT22;11275;52.488;13.462;2023-02-18T00:39:29;8.90;99.90
22212;DHT22;11275;52.488;13.462;2023-02-18T00:41:54;8.80;99.90
22212;DHT22;11275;52.488;13.462;2023-02-18T00:44:20;8.70;99.90
22212;DHT22;11275;52.488;13.462;2023-02-18T00:46:45;8.60;99.90
22212;DHT22;11275;52.488;13.462;2023-02-18T00:49:12;8.70;99.90
22212;DHT22;11275;52.488;13.462;2023-02-18T00:51:38;8.60;99.90
22212;DHT22;11275;52.488;13.462;2023-02-18T00:54:03;8.50;99.90
22212;DHT22;11275;52.488;13.462;2023-02-18T00:56:29;8.50;99.90
22212;DHT22;11275;52.488;13.462;2023-02-18T00:58:54;8.60;99.90
22212;DHT22;11275;52.488;13.462;2023-02-18T01:01:20;8.50;99.90
22212;DHT22;11275;52.488;13.462;2023-02-18T01:03:45;8.50;99.90
22212;DHT22;11275;52.488;13.462;2023-02-18T01:06:11;8.50;99.90
22212;DHT22;11275;52.488;13.462;2023-02-18T01:08:37;8.50;99.90
22212;DHT22;11275;52.488;13.462;2023-02-18T01:11:03;8.50;99.90
22212;DHT22;11275;52.488;13.462;2023-02-18T01:13:29;8.40;99.90
22212;DHT22;11275;52.488;13.462;2023-02-18T01:15:55;8.30;99.90
22212;DHT22;11275;52.488;13.462;2023-02-18T01:18:20;8.40;99.90
22212;DHT22;11275;52.488;13.462;2023-02-18T01:20:46;8.40;99.90
22212;DHT22;11275;52.488;13.462;2023-02-18T01:23:11;8.30;99.90
22212;DHT22;11275;52.488;13.462;2023-02-18T01:25:37;8.30;99.90
22212;DHT22;11275;52.488;13.462;2023-02-18T01:28:04;8.40;99.90
22212;DHT22;11275;52.488;13.462;2023-02-18T01:30:29;8.30;99.90
22212;DHT22;11275;52.488;13.462;2023-02-18T01:32:55;8.40;99.90
22212;DHT22;11275;52.488;13.462;2023-02-18T01:35:21;8.30;99.90
22212;DHT22;11275;52.488;13.462;2023-02-18T01:37:48;8.30;99.90
22212;DHT22;11275;52.488;13.462;2023-02-18T01:40:15;8.20;99.90
22212;DHT22;11275;52.488;13.462;2023-02-18T01:42:41;8.20;99.90
22212;DHT22;11275;52.488;13.462;2023-02-18T01:47:51;8.20;99.90
22212;DHT22;11275;52.488;13.462;2023-02-18T01:50:16;8.30;99.90
22212;DHT22;11275;52.488;13.462;2023-02-18T01:52:42;8.30;99.90
22212;DHT22;11275;52.488;13.462;2023-02-18T01:55:07;8.40;99.90
22212;DHT22;11275;52.488;13.462;2023-02-18T01:57:34;8.30;99.90
22212;DHT22;11275;52.488;13.462;2023-02-18T02:00:09;8.30;99.90
22212;DHT22;11275;52.488;13.462;2023-02-18T02:02:36;8.20;99.90
22212;DHT22;11275;52.488;13.462;2023-02-18T02:05:03;8.20;99.90
22212;DHT22;11275;52.488;13.462;2023-02-18T02:07:28;8.10;99.90
22212;DHT22;11275;52.488;13.462;2023-02-18T02:09:55;8.10;99.90
22212;DHT22;11275;52.488;13.462;2023-02-18T02:12:30;8.10;99.90
22212;DHT22;11275;52.488;13.462;2023-02-18T02:20:36;8.20;99.90
22212;DHT22;11275;52.488;13.462;2023-02-18T02:23:33;8.10;99.90
22212;DHT22;11275;52.488;13.462;2023-02-18T02:26:10;8.10;99.90
22212;DHT22;11275;52.488;13.462;2023-02-18T02:36:33;8.00;99.90
22212;DHT22;11275;52.488;13.462;2023-02-18T02:46:52;8.00;99.90
22212;DHT22;11275;52.488;13.462;2023-02-18T02:49:32;8.00;99.90
22212;DHT22;11275;52.488;13.462;2023-02-18T02:52:04;8.10;99.90
22212;DHT22;11275;52.488;13.462;2023-02-18T02:54:32;8.00;99.90
22212;DHT22;11275;52.488;13.462;2023-02-18T02:57:04;8.00;99.90
22212;DHT22;11275;52.488;13.462;2023-02-18T02:59:30;7.90;99.90
22212;DHT22;11275;52.488;13.462;2023-02-18T03:04:58;7.90;99.90
22212;DHT22;11275;52.488;13.462;2023-02-18T03:14:55;7.90;99.90
22212;DHT22;11275;52.488;13.462;2023-02-18T03:19:50;7.80;99.90
22212;DHT22;11275;52.488;13.462;2023-02-18T03:22:17;7.80;99.90
22212;DHT22;11275;52.488;13.462;2023-02-18T03:24:49;7.80;99.90
22212;DHT22;11275;52.488;13.462;2023-02-18T03:27:16;7.90;99.90
22212;DHT22;11275;52.488;13.462;2023-02-18T03:29:44;7.80;99.90
22212;DHT22;11275;52.488;13.462;2023-02-18T03:32:10;7.90;99.90
22212;DHT22;11275;52.488;13.462;2023-02-18T03:34:38;7.90;99.90
22212;DHT22;11275;52.488;13.462;2023-02-18T03:37:04;7.90;99.90
22212;DHT22;11275;52.488;13.462;2023-02-18T03:39:31;7.90;99.90
22212;DHT22;11275;52.488;13.462;2023-02-18T03:41:58;7.90;99.90
22212;DHT22;11275;52.488;13.462;2023-02-18T03:44:24;7.90;99.90
22212;DHT22;11275;52.488;13.462;2023-02-18T03:46:50;7.80;99.90
22212;DHT22;11275;52.488;13.462;2023-02-18T03:49:16;7.90;99.90
22212;DHT22;11275;52.488;13.462;2023-02-18T03:51:41;7.90;99.90
22212;DHT22;11275;52.488;13.462;2023-02-18T03:54:07;8.00;99.90
22212;DHT22;11275;52.488;13.462;2023-02-18T03:56:33;7.80;99.90
22212;DHT22;11275;52.488;13.462;2023-02-18T03:58:59;7.80;99.90
22212;DHT22;11275;52.488;13.462;2023-02-18T04:01:25;7.80;99.90
22212;DHT22;11275;52.488;13.462;2023-02-18T04:03:50;7.80;99.90
22212;DHT22;11275;52.488;13.462;2023-02-18T04:06:16;7.80;99.90
22212;DHT22;11275;52.488;13.462;2023-02-18T04:08:41;7.70;99.90
22212;DHT22;11275;52.488;13.462;2023-02-18T04:11:07;7.70;99.90
22212;DHT22;11275;52.488;13.462;2023-02-18T04:13:32;7.70;99.90
22212;DHT22;11275;52.488;13.462;2023-02-18T04:15:58;7.80;99.90
22212;DHT22;11275;52.488;13.462;2023-02-18T04:18:23;7.70;99.90
22212;DHT22;11275;52.488;13.462;2023-02-18T04:20:49;7.80;99.90
22212;DHT22;11275;52.488;13.462;2023-02-18T04:23:14;7.80;99.90
22212;DHT22;11275;52.488;13.462;2023-02-18T04:25:40;7.80;99.90
22212;DHT22;11275;52.488;13.462;2023-02-18T04:28:06;7.80;99.90
22212;DHT22;11275;52.488;13.462;2023-02-18T04:30:31;7.80;99.90
22212;DHT22;11275;52.488;13.462;2023-02-18T04:32:57;7.80;99.90
22212;DHT22;11275;52.488;13.462;2023-02-18T04:35:22;7.80;99.90
22212;DHT22;11275;52.488;13.462;2023-02-18T04:40:21;7.70;99.90
22212;DHT22;11275;52.488;13.462;2023-02-18T04:42:46;7.60;99.90
22212;DHT22;11275;52.488;13.462;2023-02-18T04:45:12;7.60;99.90
22212;DHT22;11275;52.488;13.462;2023-02-18T04:47:37;7.60;99.90
22212;DHT22;11275;52.488;13.462;2023-02-18T04:50:03;7.50;99.90
22212;DHT22;11275;52.488;13.462;2023-02-18T04:52:29;7.60;99.90
22212;DHT22;11275;52.488;13.462;2023-02-18T04:54:54;7.60;99.90
22212;DHT22;11275;52.488;13.462;2023-02-18T04:57:19;7.50;99.90
22212;DHT22;11275;52.488;13.462;2023-02-18T04:59:45;7.60;99.90
22212;DHT22;11275;52.488;13.462;2023-02-18T05:02:10;7.60;99.90
22212;DHT22;11275;52.488;13.462;2023-02-18T05:04:36;7.60;99.90
22212;DHT22;11275;52.488;13.462;2023-02-18T05:07:01;7.60;99.90
22212;DHT22;11275;52.488;13.462;2023-02-18T05:09:27;7.70;99.90
22212;DHT22;11275;52.488;13.462;2023-02-18T05:11:52;7.70;99.90
22212;DHT22;11275;52.488;13.462;2023-02-18T05:14:19;7.60;99.90
22212;DHT22;11275;52.488;13.462;2023-02-18T05:16:44;7.70;99.90
22212;DHT22;11275;52.488;13.462;2023-02-18T05:19:12;7.70;99.90
22212;DHT22;11275;52.488;13.462;2023-02-18T05:21:38;7.70;99.90
22212;DHT22;11275;52.488;13.462;2023-02-18T05:24:03;7.70;99.90
22212;DHT22;11275;52.488;13.462;2023-02-18T05:26:29;7.80;99.90
22212;DHT22;11275;52.488;13.462;2023-02-18T05:28:55;7.80;99.90
22212;DHT22;11275;52.488;13.462;2023-02-18T05:31:21;7.90;99.90
22212;DHT22;11275;52.488;13.462;2023-02-18T05:33:47;8.00;99.90
22212;DHT22;11275;52.488;13.462;2023-02-18T05:36:12;7.90;99.90
22212;DHT22;11275;52.488;13.462;2023-02-18T05:38:38;8.00;99.90
22212;DHT22;11275;52.488;13.462;2023-02-18T05:41:03;7.90;99.90
22212;DHT22;11275;52.488;13.462;2023-02-18T05:43:29;7.90;99.90
22212;DHT22;11275;52.488;13.462;2023-02-18T05:45:54;7.90;99.90
22212;DHT22;11275;52.488;13.462;2023-02-18T05:48:20;7.90;99.90
22212;DHT22;11275;52.488;13.462;2023-02-18T05:50:45;7.90;99.90
22212;DHT22;11275;52.488;13.462;2023-02-18T05:53:11;8.00;99.90
22212;DHT22;11275;52.488;13.462;2023-02-18T05:55:36;8.00;99.90
22212;DHT22;11275;52.488;13.462;2023-02-18T05:58:03;8.00;99.90
22212;DHT22;11275;52.488;13.462;2023-02-18T06:00:29;8.00;99.90
22212;DHT22;11275;52.488;13.462;2023-02-18T06:02:56;8.10;99.90
22212;DHT22;11275;52.488;13.462;2023-02-18T06:05:22;8.10;99.90
22212;DHT22;11275;52.488;13.462;2023-02-18T06:07:48;8.10;99.90
22212;DHT22;11275;52.488;13.462;2023-02-18T06:10:13;8.20;99.90
22212;DHT22;11275;52.488;13.462;2023-02-18T06:12:39;8.20;99.90
22212;DHT22;11275;52.488;13.462;2023-02-18T06:15:04;8.20;99.90
22212;DHT22;11275;52.488;13.462;2023-02-18T06:17:30;8.20;99.90
22212;DHT22;11275;52.488;13.462;2023-02-18T06:19:55;8.10;99.90
22212;DHT22;11275;52.488;13.462;2023-02-18T06:22:21;8.20;99.90
22212;DHT22;11275;52.488;13.462;2023-02-18T06:24:46;8.30;99.90
22212;DHT22;11275;52.488;13.462;2023-02-18T06:27:12;8.20;99.90
22212;DHT22;11275;52.488;13.462;2023-02-18T06:29:37;8.20;99.90
22212;DHT22;11275;52.488;13.462;2023-02-18T06:32:03;8.30;99.90
22212;DHT22;11275;52.488;13.462;2023-02-18T06:34:29;8.40;99.90
22212;DHT22;11275;52.488;13.462;2023-02-18T06:36:54;8.40;99.90
22212;DHT22;11275;52.488;13.462;2023-02-18T06:39:20;8.30;99.90
22212;DHT22;11275;52.488;13.462;2023-02-18T06:41:45;8.30;99.90
22212;DHT22;11275;52.488;13.462;2023-02-18T06:44:10;8.30;99.90
22212;DHT22;11275;52.488;13.462;2023-02-18T06:46:36;8.40;99.90
22212;DHT22;11275;52.488;13.462;2023-02-18T06:49:02;8.50;99.90
22212;DHT22;11275;52.488;13.462;2023-02-18T06:51:28;8.50;99.90
22212;DHT22;11275;52.488;13.462;2023-02-18T06:53:53;8.40;99.90
22212;DHT22;11275;52.488;13.462;2023-02-18T06:56:19;8.40;99.90
22212;DHT22;11275;52.488;13.462;2023-02-18T06:58:44;8.50;99.90
22212;DHT22;11275;52.488;13.462;2023-02-18T07:01:10;8.50;99.90
22212;DHT22;11275;52.488;13.462;2023-02-18T07:03:35;8.40;99.90
22212;DHT22;11275;52.488;13.462;2023-02-18T07:06:03;8.50;99.90
22212;DHT22;11275;52.488;13.462;2023-02-18T07:08:29;8.60;99.90
22212;DHT22;11275;52.488;13.462;2023-02-18T07:10:57;8.60;99.90
22212;DHT22;11275;52.488;13.462;2023-02-18T07:13:22;8.50;99.90
22212;DHT22;11275;52.488;13.462;2023-02-18T07:15:48;8.50;99.90
22212;DHT22;11275;52.488;13.462;2023-02-18T07:18:13;8.50;99.90
22212;DHT22;11275;52.488;13.462;2023-02-18T07:20:39;8.60;99.90
22212;DHT22;11275;52.488;13.462;2023-02-18T07:23:04;8.60;99.90
22212;DHT22;11275;52.488;13.462;2023-02-18T07:25:30;8.70;99.90
22212;DHT22;11275;52.488;13.462;2023-02-18T07:27:55;8.70;99.90
22212;DHT22;11275;52.488;13.462;2023-02-18T07:30:21;8.80;99.90
22212;DHT22;11275;52.488;13.462;2023-02-18T07:32:46;8.80;99.90
22212;DHT22;11275;52.488;13.462;2023-02-18T07:35:12;8.70;99.90
22212;DHT22;11275;52.488;13.462;2023-02-18T07:37:39;8.70;99.90
22212;DHT22;11275;52.488;13.462;2023-02-18T07:40:04;8.70;99.90
22212;DHT22;11275;52.488;13.462;2023-02-18T07:42:30;8.70;99.90
22212;DHT22;11275;52.488;13.462;2023-02-18T07:44:56;8.70;99.90
22212;DHT22;11275;52.488;13.462;2023-02-18T07:47:21;8.80;99.90
22212;DHT22;11275;52.488;13.462;2023-02-18T07:49:47;8.80;99.90
22212;DHT22;11275;52.488;13.462;2023-02-18T07:52:13;8.70;99.90
22212;DHT22;11275;52.488;13.462;2023-02-18T07:54:39;8.60;99.90
22212;DHT22;11275;52.488;13.462;2023-02-18T07:57:04;8.60;99.90
22212;DHT22;11275;52.488;13.462;2023-02-18T07:59:30;8.80;99.90
22212;DHT22;11275;52.488;13.462;2023-02-18T08:01:55;8.80;99.90
22212;DHT22;11275;52.488;13.462;2023-02-18T08:04:21;8.70;99.90
22212;DHT22;11275;52.488;13.462;2023-02-18T08:06:47;8.70;99.90
22212;DHT22;11275;52.488;13.462;2023-02-18T08:09:14;8.70;99.90
22212;DHT22;11275;52.488;13.462;2023-02-18T08:11:40;8.80;99.90
22212;DHT22;11275;52.488;13.462;2023-02-18T08:14:06;8.90;99.90
22212;DHT22;11275;52.488;13.462;2023-02-18T08:16:31;8.90;99.90
22212;DHT22;11275;52.488;13.462;2023-02-18T08:18:57;8.80;99.90
22212;DHT22;11275;52.488;13.462;2023-02-18T08:21:23;8.80;99.90
22212;DHT22;11275;52.488;13.462;2023-02-18T08:23:49;8.60;99.90
22212;DHT22;11275;52.488;13.462;2023-02-18T08:26:14;8.70;99.90
22212;DHT22;11275;52.488;13.462;2023-02-18T08:28:40;8.80;99.90
22212;DHT22;11275;52.488;13.462;2023-02-18T08:31:06;8.90;99.90
22212;DHT22;11275;52.488;13.462;2023-02-18T08:33:32;8.80;99.90
22212;DHT22;11275;52.488;13.462;2023-02-18T08:35:57;8.60;99.90
22212;DHT22;11275;52.488;13.462;2023-02-18T08:38:23;8.60;99.90
22212;DHT22;11275;52.488;13.462;2023-02-18T08:40:49;8.60;99.90
22212;DHT22;11275;52.488;13.462;2023-02-18T08:43:15;8.70;99.90
22212;DHT22;11275;52.488;13.462;2023-02-18T08:45:41;8.60;99.90
22212;DHT22;11275;52.488;13.462;2023-02-18T08:48:13;8.70;99.90
22212;DHT22;11275;52.488;13.462;2023-02-18T08:50:40;8.70;99.90
22212;DHT22;11275;52.488;13.462;2023-02-18T08:53:06;8.60;99.90
22212;DHT22;11275;52.488;13.462;2023-02-18T08:55:32;8.60;99.90
22212;DHT22;11275;52.488;13.462;2023-02-18T08:57:57;8.60;99.90
22212;DHT22;11275;52.488;13.462;2023-02-18T09:00:23;8.50;99.90
22212;DHT22;11275;52.488;13.462;2023-02-18T09:02:48;8.50;99.90
22212;DHT22;11275;52.488;13.462;2023-02-18T09:05:14;8.50;99.90
22212;DHT22;11275;52.488;13.462;2023-02-18T09:07:39;8.50;99.90
22212;DHT22;11275;52.488;13.462;2023-02-18T09:10:05;8.50;99.90
22212;DHT22;11275;52.488;13.462;2023-02-18T09:12:31;8.50;99.90
22212;DHT22;11275;52.488;13.462;2023-02-18T09:14:57;8.40;99.90
22212;DHT22;11275;52.488;13.462;2023-02-18T09:17:23;8.30;99.90
22212;DHT22;11275;52.488;13.462;2023-02-18T09:19:48;8.50;99.90
22212;DHT22;11275;52.488;13.462;2023-02-18T09:22:14;8.60;99.90
22212;DHT22;11275;52.488;13.462;2023-02-18T09:24:40;8.70;99.90
22212;DHT22;11275;52.488;13.462;2023-02-18T09:27:06;8.80;99.90
22212;DHT22;11275;52.488;13.462;2023-02-18T09:29:31;9.00;99.90
22212;DHT22;11275;52.488;13.462;2023-02-18T09:32:00;9.00;99.90
22212;DHT22;11275;52.488;13.462;2023-02-18T09:34:26;9.00;99.90
22212;DHT22;11275;52.488;13.462;2023-02-18T09:36:52;9.10;99.90
22212;DHT22;11275;52.488;13.462;2023-02-18T09:39:17;9.10;99.90
22212;DHT22;11275;52.488;13.462;2023-02-18T09:41:45;9.20;99.90
22212;DHT22;11275;52.488;13.462;2023-02-18T09:44:24;9.10;99.90
22212;DHT22;11275;52.488;13.462;2023-02-18T09:46:55;9.20;99.90
22212;DHT22;11275;52.488;13.462;2023-02-18T09:49:22;9.20;99.90
22212;DHT22;11275;52.488;13.462;2023-02-18T09:51:49;9.20;99.90
22212;DHT22;11275;52.488;13.462;2023-02-18T09:54:16;9.10;99.90
22212;DHT22;11275;52.488;13.462;2023-02-18T09:56:42;9.20;99.90
22212;DHT22;11275;52.488;13.462;2023-02-18T09:59:13;9.20;99.90
22212;DHT22;11275;52.488;13.462;2023-02-18T10:01:40;9.20;99.90
22212;DHT22;11275;52.488;13.462;2023-02-18T10:04:21;9.30;99.90
22212;DHT22;11275;52.488;13.462;2023-02-18T10:06:51;9.30;99.90
22212;DHT22;11275;52.488;13.462;2023-02-18T10:09:35;9.30;99.90
22212;DHT22;11275;52.488;13.462;2023-02-18T10:12:15;9.20;99.90
22212;DHT22;11275;52.488;13.462;2023-02-18T10:14:47;9.20;99.90
22212;DHT22;11275;52.488;13.462;2023-02-18T10:17:13;9.20;99.90
22212;DHT22;11275;52.488;13.462;2023-02-18T10:19:41;9.20;99.90
22212;DHT22;11275;52.488;13.462;2023-02-18T10:22:08;9.20;99.90
22212;DHT22;11275;52.488;13.462;2023-02-18T10:24:37;9.20;99.90
22212;DHT22;11275;52.488;13.462;2023-02-18T10:27:04;9.20;99.90
22212;DHT22;11275;52.488;13.462;2023-02-18T10:29:29;9.20;99.90
22212;DHT22;11275;52.488;13.462;2023-02-18T10:36:56;9.30;99.90
22212;DHT22;11275;52.488;13.462;2023-02-18T10:44:36;9.30;99.90
22212;DHT22;11275;52.488;13.462;2023-02-18T10:52:05;9.50;99.90
22212;DHT22;11275;52.488;13.462;2023-02-18T10:54:48;9.50;99.90
22212;DHT22;11275;52.488;13.462;2023-02-18T10:57:16;9.40;99.90
22212;DHT22;11275;52.488;13.462;2023-02-18T10:59:44;9.40;99.90
22212;DHT22;11275;52.488;13.462;2023-02-18T11:02:17;9.40;99.90
22212;DHT22;11275;52.488;13.462;2023-02-18T11:04:44;9.40;99.90
22212;DHT22;11275;52.488;13.462;2023-02-18T11:07:13;9.50;99.90
22212;DHT22;11275;52.488;13.462;2023-02-18T11:09:45;9.60;99.90
22212;DHT22;11275;52.488;13.462;2023-02-18T11:12:22;9.50;99.90
22212;DHT22;11275;52.488;13.462;2023-02-18T11:14:49;9.40;99.90
22212;DHT22;11275;52.488;13.462;2023-02-18T11:19:41;9.50;99.90
22212;DHT22;11275;52.488;13.462;2023-02-18T11:24:32;9.60;99.90
22212;DHT22;11275;52.488;13.462;2023-02-18T11:27:06;9.60;99.90
22212;DHT22;11275;52.488;13.462;2023-02-18T11:29:32;9.60;99.90
22212;DHT22;11275;52.488;13.462;2023-02-18T11:31:58;9.60;99.90
22212;DHT22;11275;52.488;13.462;2023-02-18T11:34:25;9.60;99.90
22212;DHT22;11275;52.488;13.462;2023-02-18T11:36:51;9.50;99.90
22212;DHT22;11275;52.488;13.462;2023-02-18T11:39:24;9.50;99.90
22212;DHT22;11275;52.488;13.462;2023-02-18T11:41:57;9.60;99.90
22212;DHT22;11275;52.488;13.462;2023-02-18T11:44:31;9.60;99.90
22212;DHT22;11275;52.488;13.462;2023-02-18T11:46:58;9.50;99.90
22212;DHT22;11275;52.488;13.462;2023-02-18T11:49:25;9.50;99.90
22212;DHT22;11275;52.488;13.462;2023-02-18T11:51:50;9.50;99.90
22212;DHT22;11275;52.488;13.462;2023-02-18T11:54:21;9.50;99.90
22212;DHT22;11275;52.488;13.462;2023-02-18T11:56:55;9.60;99.90
22212;DHT22;11275;52.488;13.462;2023-02-18T11:59:21;9.60;99.90
22212;DHT22;11275;52.488;13.462;2023-02-18T12:01:50;9.50;99.90
22212;DHT22;11275;52.488;13.462;2023-02-18T12:04:25;9.50;99.90
22212;DHT22;11275;52.488;13.462;2023-02-18T12:07:41;9.60;99.90
22212;DHT22;11275;52.488;13.462;2023-02-18T12:09:49;9.60;99.90
22212;DHT22;11275;52.488;13.462;2023-02-18T12:12:40;9.70;99.90
22212;DHT22;11275;52.488;13.462;2023-02-18T12:15:00;9.80;99.90
22212;DHT22;11275;52.488;13.462;2023-02-18T12:27:33;9.70;99.90
22212;DHT22;11275;52.488;13.462;2023-02-18T12:42:53;10.10;99.90
22212;DHT22;11275;52.488;13.462;2023-02-18T12:50:33;10.20;99.90
22212;DHT22;11275;52.488;13.462;2023-02-18T12:53:04;10.30;99.90
22212;DHT22;11275;52.488;13.462;2023-02-18T12:58:16;10.50;99.90
22212;DHT22;11275;52.488;13.462;2023-02-18T13:00:52;10.60;99.90
22212;DHT22;11275;52.488;13.462;2023-02-18T13:06:16;10.80;99.90
22212;DHT22;11275;52.488;13.462;2023-02-18T13:11:18;11.20;99.90
22212;DHT22;11275;52.488;13.462;2023-02-18T13:13:48;11.30;99.90
22212;DHT22;11275;52.488;13.462;2023-02-18T13:16:15;11.30;99.90
22212;DHT22;11275;52.488;13.462;2023-02-18T13:18:43;11.30;99.90
22212;DHT22;11275;52.488;13.462;2023-02-18T13:21:14;11.20;99.90
22212;DHT22;11275;52.488;13.462;2023-02-18T13:26:14;11.30;99.90
22212;DHT22;11275;52.488;13.462;2023-02-18T13:31:14;11.40;99.90
22212;DHT22;11275;52.488;13.462;2023-02-18T13:34:03;11.60;99.90
22212;DHT22;11275;52.488;13.462;2023-02-18T13:36:40;11.50;99.90
22212;DHT22;11275;52.488;13.462;2023-02-18T13:39:15;11.40;99.90
22212;DHT22;11275;52.488;13.462;2023-02-18T13:41:44;11.40;99.90
22212;DHT22;11275;52.488;13.462;2023-02-18T13:46:49;11.50;99.90
22212;DHT22;11275;52.488;13.462;2023-02-18T13:49:17;11.50;99.90
22212;DHT22;11275;52.488;13.462;2023-02-18T13:51:45;11.50;99.90
22212;DHT22;11275;52.488;13.462;2023-02-18T13:56:46;11.50;99.90
22212;DHT22;11275;52.488;13.462;2023-02-18T14:01:42;11.50;99.90
22212;DHT22;11275;52.488;13.462;2023-02-18T14:07:16;11.50;99.90
22212;DHT22;11275;52.488;13.462;2023-02-18T14:09:45;11.50;99.90
22212;DHT22;11275;52.488;13.462;2023-02-18T14:14:55;11.60;99.90
22212;DHT22;11275;52.488;13.462;2023-02-18T14:27:28;11.60;99.90
22212;DHT22;11275;52.488;13.462;2023-02-18T14:29:54;11.50;99.90
22212;DHT22;11275;52.488;13.462;2023-02-18T14:32:26;11.50;99.90
22212;DHT22;11275;52.488;13.462;2023-02-18T14:37:48;11.70;99.90
22212;DHT22;11275;52.488;13.462;2023-02-18T14:51:01;11.70;99.90
22212;DHT22;11275;52.488;13.462;2023-02-18T14:53:27;11.70;99.90
22212;DHT22;11275;52.488;13.462;2023-02-18T14:56:03;11.70;99.90
22212;DHT22;11275;52.488;13.462;2023-02-18T14:58:30;11.60;99.90
22212;DHT22;11275;52.488;13.462;2023-02-18T15:00:58;11.60;99.90
22212;DHT22;11275;52.488;13.462;2023-02-18T15:03:29;11.70;99.90
22212;DHT22;11275;52.488;13.462;2023-02-18T15:05:55;11.60;99.90
22212;DHT22;11275;52.488;13.462;2023-02-18T15:08:23;11.50;99.90
22212;DHT22;11275;52.488;13.462;2023-02-18T15:10:55;11.50;99.90
22212;DHT22;11275;52.488;13.462;2023-02-18T15:13:27;11.50;99.90
22212;DHT22;11275;52.488;13.462;2023-02-18T15:16:00;11.50;99.90
22212;DHT22;11275;52.488;13.462;2023-02-18T15:20:52;11.60;99.90
22212;DHT22;11275;52.488;13.462;2023-02-18T15:23:18;11.60;99.90
22212;DHT22;11275;52.488;13.462;2023-02-18T15:25:48;11.60;99.90
22212;DHT22;11275;52.488;13.462;2023-02-18T15:28:25;11.60;99.90
22212;DHT22;11275;52.488;13.462;2023-02-18T15:30:51;11.60;99.90
22212;DHT22;11275;52.488;13.462;2023-02-18T15:33:17;11.80;99.90
22212;DHT22;11275;52.488;13.462;2023-02-18T15:35:43;11.90;99.90
22212;DHT22;11275;52.488;13.462;2023-02-18T15:38:16;12.00;99.90
22212;DHT22;11275;52.488;13.462;2023-02-18T15:40:42;11.90;99.90
22212;DHT22;11275;52.488;13.462;2023-02-18T15:43:08;11.70;99.90
22212;DHT22;11275;52.488;13.462;2023-02-18T15:45:34;11.80;99.90
22212;DHT22;11275;52.488;13.462;2023-02-18T15:48:01;11.80;99.90
22212;DHT22;11275;52.488;13.462;2023-02-18T15:52:53;11.80;99.90
22212;DHT22;11275;52.488;13.462;2023-02-18T15:57:45;11.80;99.90
22212;DHT22;11275;52.488;13.462;2023-02-18T16:00:13;11.70;99.90
22212;DHT22;11275;52.488;13.462;2023-02-18T16:02:48;11.80;99.90
22212;DHT22;11275;52.488;13.462;2023-02-18T16:05:15;11.70;99.90
22212;DHT22;11275;52.488;13.462;2023-02-18T16:08:00;11.70;99.90
22212;DHT22;11275;52.488;13.462;2023-02-18T16:13:01;11.70;99.90
22212;DHT22;11275;52.488;13.462;2023-02-18T16:15:37;11.60;99.90
22212;DHT22;11275;52.488;13.462;2023-02-18T16:18:03;11.70;99.90
22212;DHT22;11275;52.488;13.462;2023-02-18T16:20:30;11.60;99.90
22212;DHT22;11275;52.488;13.462;2023-02-18T16:23:00;11.60;99.90
22212;DHT22;11275;52.488;13.462;2023-02-18T16:25:46;11.60;99.90
22212;DHT22;11275;52.488;13.462;2023-02-18T16:28:13;11.70;99.90
22212;DHT22;11275;52.488;13.462;2023-02-18T16:30:40;11.60;99.90
22212;DHT22;11275;52.488;13.462;2023-02-18T16:33:06;11.50;99.90
22212;DHT22;11275;52.488;13.462;2023-02-18T16:35:32;11.60;99.90
22212;DHT22;11275;52.488;13.462;2023-02-18T16:37:58;11.60;99.90
22212;DHT22;11275;52.488;13.462;2023-02-18T16:42:55;11.60;99.90
22212;DHT22;11275;52.488;13.462;2023-02-18T16:45:23;11.60;99.90
22212;DHT22;11275;52.488;13.462;2023-02-18T16:47:50;11.50;99.90
22212;DHT22;11275;52.488;13.462;2023-02-18T16:50:20;11.60;99.90
22212;DHT22;11275;52.488;13.462;2023-02-18T16:52:45;11.40;99.90
22212;DHT22;11275;52.488;13.462;2023-02-18T16:55:15;11.30;99.90
22212;DHT22;11275;52.488;13.462;2023-02-18T16:57:42;10.70;99.90
22212;DHT22;11275;52.488;13.462;2023-02-18T17:00:08;10.10;99.90
22212;DHT22;11275;52.488;13.462;2023-02-18T17:02:33;9.80;99.90
22212;DHT22;11275;52.488;13.462;2023-02-18T17:05:00;9.70;99.90
22212;DHT22;11275;52.488;13.462;2023-02-18T17:07:25;9.70;99.90
22212;DHT22;11275;52.488;13.462;2023-02-18T17:09:51;9.70;99.90
22212;DHT22;11275;52.488;13.462;2023-02-18T17:12:16;9.70;99.90
22212;DHT22;11275;52.488;13.462;2023-02-18T17:14:42;9.80;99.90
22212;DHT22;11275;52.488;13.462;2023-02-18T17:17:10;9.90;99.90
22212;DHT22;11275;52.488;13.462;2023-02-18T17:19:37;9.80;99.90
22212;DHT22;11275;52.488;13.462;2023-02-18T17:22:03;9.70;99.90
22212;DHT22;11275;52.488;13.462;2023-02-18T17:24:28;9.60;99.90
22212;DHT22;11275;52.488;13.462;2023-02-18T17:26:54;9.50;99.90
22212;DHT22;11275;52.488;13.462;2023-02-18T17:29:19;9.40;99.90
22212;DHT22;11275;52.488;13.462;2023-02-18T17:31:45;9.40;99.90
22212;DHT22;11275;52.488;13.462;2023-02-18T17:34:15;9.20;99.90
22212;DHT22;11275;52.488;13.462;2023-02-18T17:36:42;9.10;99.90
22212;DHT22;11275;52.488;13.462;2023-02-18T17:39:13;9.10;99.90
22212;DHT22;11275;52.488;13.462;2023-02-18T17:41:39;9.00;99.90
22212;DHT22;11275;52.488;13.462;2023-02-18T17:44:14;9.20;99.90
22212;DHT22;11275;52.488;13.462;2023-02-18T17:46:40;9.40;99.90
22212;DHT22;11275;52.488;13.462;2023-02-18T17:49:05;9.50;99.90
22212;DHT22;11275;52.488;13.462;2023-02-18T17:51:31;9.70;99.90
22212;DHT22;11275;52.488;13.462;2023-02-18T17:53:58;9.90;99.90
22212;DHT22;11275;52.488;13.462;2023-02-18T17:56:23;9.90;99.90
22212;DHT22;11275;52.488;13.462;2023-02-18T17:58:49;9.80;99.90